sensor_id;sensor_type;location;lat;lon;timestamp;P1;durP1;ratioP1;P2;durP2;ratioP2
64932;SDS011;51446;53.850;10.662;2022-07-05T00:00:59;2.70;;;1.37;;
64932;SDS011;51446;53.850;10.662;2022-07-05T00:03:25;3.77;;;1.33;;
64932;SDS011;51446;53.850;10.662;2022-07-05T00:05:51;2.30;;;1.60;;
64932;SDS011;51446;53.850;10.662;2022-07-05T00:08:17;2.13;;;1.50;;
64932;SDS011;51446;53.850;10.662;2022-07-05T00:10:42;4.30;;;1.40;;
64932;SDS011;51446;53.850;10.662;2022-07-05T00:13:08;3.60;;;1.40;;
64932;SDS011;51446;53.850;10.662;2022-07-05T00:15:34;2.88;;;1.38;;
64932;SDS011;51446;53.850;10.662;2022-07-05T00:17:59;4.50;;;1.50;;
64932;SDS011;51446;53.850;10.662;2022-07-05T00:20:24;3.27;;;1.57;;
64932;SDS011;51446;53.850;10.662;2022-07-05T00:22:50;3.00;;;1.40;;
64932;SDS011;51446;53.850;10.662;2022-07-05T00:25:15;5.25;;;1.77;;
64932;SDS011;51446;53.850;10.662;2022-07-05T00:27:41;3.30;;;1.50;;
64932;SDS011;51446;53.850;10.662;2022-07-05T00:30:06;3.70;;;1.50;;
64932;SDS011;51446;53.850;10.662;2022-07-05T00:32:32;2.40;;;1.67;;
64932;SDS011;51446;53.850;10.662;2022-07-05T00:34:57;5.23;;;1.63;;
64932;SDS011;51446;53.850;10.662;2022-07-05T00:37:23;2.70;;;1.40;;
64932;SDS011;51446;53.850;10.662;2022-07-05T00:39:48;3.30;;;1.50;;
64932;SDS011;51446;53.850;10.662;2022-07-05T00:42:14;3.22;;;1.90;;
64932;SDS011;51446;53.850;10.662;2022-07-05T00:44:39;2.83;;;1.47;;
64932;SDS011;51446;53.850;10.662;2022-07-05T00:47:06;4.80;;;1.60;;
64932;SDS011;51446;53.850;10.662;2022-07-05T00:49:33;5.05;;;1.70;;
64932;SDS011;51446;53.850;10.662;2022-07-05T00:51:59;2.60;;;1.50;;
64932;SDS011;51446;53.850;10.662;2022-07-05T00:54:26;3.92;;;1.30;;
64932;SDS011;51446;53.850;10.662;2022-07-05T00:56:52;3.28;;;1.45;;
64932;SDS011;51446;53.850;10.662;2022-07-05T00:59:18;2.00;;;1.40;;
64932;SDS011;51446;53.850;10.662;2022-07-05T01:01:44;1.50;;;1.23;;
64932;SDS011;51446;53.850;10.662;2022-07-05T01:04:10;3.67;;;1.63;;
64932;SDS011;51446;53.850;10.662;2022-07-05T01:06:37;3.50;;;1.40;;
64932;SDS011;51446;53.850;10.662;2022-07-05T01:09:03;4.15;;;1.40;;
64932;SDS011;51446;53.850;10.662;2022-07-05T01:11:28;3.53;;;1.60;;
64932;SDS011;51446;53.850;10.662;2022-07-05T01:13:53;2.20;;;1.53;;
64932;SDS011;51446;53.850;10.662;2022-07-05T01:16:19;1.85;;;1.60;;
64932;SDS011;51446;53.850;10.662;2022-07-05T01:18:45;2.23;;;1.80;;
64932;SDS011;51446;53.850;10.662;2022-07-05T01:21:11;2.87;;;1.60;;
64932;SDS011;51446;53.850;10.662;2022-07-05T01:23:38;4.53;;;1.95;;
64932;SDS011;51446;53.850;10.662;2022-07-05T01:26:04;2.03;;;1.30;;
64932;SDS011;51446;53.850;10.662;2022-07-05T01:28:31;3.97;;;1.77;;
64932;SDS011;51446;53.850;10.662;2022-07-05T01:30:56;4.03;;;1.50;;
64932;SDS011;51446;53.850;10.662;2022-07-05T01:33:29;3.60;;;1.60;;
64932;SDS011;51446;53.850;10.662;2022-07-05T01:35:55;6.07;;;1.70;;
64932;SDS011;51446;53.850;10.662;2022-07-05T01:38:21;4.83;;;1.90;;
64932;SDS011;51446;53.850;10.662;2022-07-05T01:40:47;2.92;;;1.60;;
64932;SDS011;51446;53.850;10.662;2022-07-05T01:43:16;2.07;;;1.63;;
64932;SDS011;51446;53.850;10.662;2022-07-05T01:45:47;5.00;;;1.70;;
64932;SDS011;51446;53.850;10.662;2022-07-05T01:48:15;2.03;;;1.52;;
64932;SDS011;51446;53.850;10.662;2022-07-05T01:50:49;5.05;;;1.90;;
64932;SDS011;51446;53.850;10.662;2022-07-05T01:53:18;4.95;;;1.55;;
64932;SDS011;51446;53.850;10.662;2022-07-05T01:55:48;5.07;;;1.50;;
64932;SDS011;51446;53.850;10.662;2022-07-05T01:58:14;5.20;;;1.70;;
64932;SDS011;51446;53.850;10.662;2022-07-05T02:00:46;2.20;;;1.70;;
64932;SDS011;51446;53.850;10.662;2022-07-05T02:03:13;4.30;;;1.58;;
64932;SDS011;51446;53.850;10.662;2022-07-05T02:05:40;2.08;;;1.60;;
64932;SDS011;51446;53.850;10.662;2022-07-05T02:08:06;5.43;;;1.60;;
64932;SDS011;51446;53.850;10.662;2022-07-05T02:10:32;5.13;;;1.80;;
64932;SDS011;51446;53.850;10.662;2022-07-05T02:12:59;2.55;;;1.58;;
64932;SDS011;51446;53.850;10.662;2022-07-05T02:15:24;5.18;;;1.80;;
64932;SDS011;51446;53.850;10.662;2022-07-05T02:17:50;6.50;;;2.10;;
64932;SDS011;51446;53.850;10.662;2022-07-05T02:20:15;3.03;;;1.87;;
64932;SDS011;51446;53.850;10.662;2022-07-05T02:22:40;3.10;;;1.70;;
64932;SDS011;51446;53.850;10.662;2022-07-05T02:25:05;4.80;;;1.77;;
64932;SDS011;51446;53.850;10.662;2022-07-05T02:27:31;5.00;;;1.70;;
64932;SDS011;51446;53.850;10.662;2022-07-05T02:29:56;2.87;;;1.63;;
64932;SDS011;51446;53.850;10.662;2022-07-05T02:32:21;6.03;;;1.80;;
64932;SDS011;51446;53.850;10.662;2022-07-05T02:34:47;3.20;;;1.90;;
64932;SDS011;51446;53.850;10.662;2022-07-05T02:37:12;5.27;;;1.97;;
64932;SDS011;51446;53.850;10.662;2022-07-05T02:39:37;3.27;;;2.00;;
64932;SDS011;51446;53.850;10.662;2022-07-05T02:42:02;2.90;;;1.70;;
64932;SDS011;51446;53.850;10.662;2022-07-05T02:44:28;1.83;;;1.53;;
64932;SDS011;51446;53.850;10.662;2022-07-05T02:46:53;2.90;;;2.10;;
64932;SDS011;51446;53.850;10.662;2022-07-05T02:49:18;3.70;;;2.00;;
64932;SDS011;51446;53.850;10.662;2022-07-05T02:51:44;4.00;;;1.83;;
64932;SDS011;51446;53.850;10.662;2022-07-05T02:54:09;4.47;;;1.80;;
64932;SDS011;51446;53.850;10.662;2022-07-05T02:56:34;2.53;;;1.90;;
64932;SDS011;51446;53.850;10.662;2022-07-05T02:58:59;7.77;;;2.20;;
64932;SDS011;51446;53.850;10.662;2022-07-05T03:01:25;3.17;;;1.90;;
64932;SDS011;51446;53.850;10.662;2022-07-05T03:03:50;4.43;;;2.10;;
64932;SDS011;51446;53.850;10.662;2022-07-05T03:06:15;2.73;;;2.13;;
64932;SDS011;51446;53.850;10.662;2022-07-05T03:08:41;7.23;;;2.07;;
64932;SDS011;51446;53.850;10.662;2022-07-05T03:11:06;6.47;;;2.28;;
64932;SDS011;51446;53.850;10.662;2022-07-05T03:13:32;4.73;;;2.30;;
64932;SDS011;51446;53.850;10.662;2022-07-05T03:15:57;5.47;;;2.10;;
64932;SDS011;51446;53.850;10.662;2022-07-05T03:18:22;6.77;;;2.00;;
64932;SDS011;51446;53.850;10.662;2022-07-05T03:20:47;4.10;;;2.20;;
64932;SDS011;51446;53.850;10.662;2022-07-05T03:23:13;6.03;;;2.10;;
64932;SDS011;51446;53.850;10.662;2022-07-05T03:25:38;5.40;;;2.30;;
64932;SDS011;51446;53.850;10.662;2022-07-05T03:28:03;2.83;;;1.67;;
64932;SDS011;51446;53.850;10.662;2022-07-05T03:30:28;4.00;;;2.07;;
64932;SDS011;51446;53.850;10.662;2022-07-05T03:32:54;5.33;;;2.07;;
64932;SDS011;51446;53.850;10.662;2022-07-05T03:35:19;5.80;;;2.10;;
64932;SDS011;51446;53.850;10.662;2022-07-05T03:37:44;3.80;;;1.93;;
64932;SDS011;51446;53.850;10.662;2022-07-05T03:40:10;4.40;;;2.00;;
64932;SDS011;51446;53.850;10.662;2022-07-05T03:42:35;2.67;;;1.73;;
64932;SDS011;51446;53.850;10.662;2022-07-05T03:45:01;4.23;;;2.10;;
64932;SDS011;51446;53.850;10.662;2022-07-05T03:47:27;5.93;;;2.08;;
64932;SDS011;51446;53.850;10.662;2022-07-05T03:49:53;5.23;;;2.20;;
64932;SDS011;51446;53.850;10.662;2022-07-05T03:52:19;5.90;;;2.40;;
64932;SDS011;51446;53.850;10.662;2022-07-05T03:54:44;6.70;;;2.07;;
64932;SDS011;51446;53.850;10.662;2022-07-05T03:57:10;4.03;;;2.00;;
64932;SDS011;51446;53.850;10.662;2022-07-05T03:59:36;4.25;;;2.25;;
64932;SDS011;51446;53.850;10.662;2022-07-05T04:02:01;5.83;;;2.43;;
64932;SDS011;51446;53.850;10.662;2022-07-05T04:04:26;3.77;;;2.30;;
64932;SDS011;51446;53.850;10.662;2022-07-05T04:06:51;4.37;;;2.40;;
64932;SDS011;51446;53.850;10.662;2022-07-05T04:09:17;4.07;;;2.20;;
64932;SDS011;51446;53.850;10.662;2022-07-05T04:11:42;7.20;;;2.77;;
64932;SDS011;51446;53.850;10.662;2022-07-05T04:14:07;5.47;;;2.67;;
64932;SDS011;51446;53.850;10.662;2022-07-05T04:16:34;4.35;;;2.75;;
64932;SDS011;51446;53.850;10.662;2022-07-05T04:18:59;9.30;;;3.07;;
64932;SDS011;51446;53.850;10.662;2022-07-05T04:21:24;3.57;;;2.77;;
64932;SDS011;51446;53.850;10.662;2022-07-05T04:23:49;4.70;;;2.60;;
64932;SDS011;51446;53.850;10.662;2022-07-05T04:26:15;7.80;;;2.90;;
64932;SDS011;51446;53.850;10.662;2022-07-05T04:28:40;3.53;;;2.78;;
64932;SDS011;51446;53.850;10.662;2022-07-05T04:31:05;5.47;;;2.93;;
64932;SDS011;51446;53.850;10.662;2022-07-05T04:33:31;5.20;;;2.90;;
64932;SDS011;51446;53.850;10.662;2022-07-05T04:35:56;3.43;;;2.40;;
64932;SDS011;51446;53.850;10.662;2022-07-05T04:38:21;2.80;;;2.40;;
64932;SDS011;51446;53.850;10.662;2022-07-05T04:40:46;5.53;;;2.90;;
64932;SDS011;51446;53.850;10.662;2022-07-05T04:43:12;3.80;;;2.70;;
64932;SDS011;51446;53.850;10.662;2022-07-05T04:45:37;4.90;;;2.60;;
64932;SDS011;51446;53.850;10.662;2022-07-05T04:48:02;5.13;;;2.97;;
64932;SDS011;51446;53.850;10.662;2022-07-05T04:50:28;4.97;;;2.78;;
64932;SDS011;51446;53.850;10.662;2022-07-05T04:52:53;6.23;;;2.60;;
64932;SDS011;51446;53.850;10.662;2022-07-05T04:55:19;4.73;;;2.37;;
64932;SDS011;51446;53.850;10.662;2022-07-05T04:57:44;5.47;;;2.67;;
64932;SDS011;51446;53.850;10.662;2022-07-05T05:00:10;5.50;;;2.60;;
64932;SDS011;51446;53.850;10.662;2022-07-05T05:02:37;4.55;;;2.17;;
64932;SDS011;51446;53.850;10.662;2022-07-05T05:05:02;7.60;;;2.23;;
64932;SDS011;51446;53.850;10.662;2022-07-05T05:07:28;6.68;;;2.30;;
64932;SDS011;51446;53.850;10.662;2022-07-05T05:09:53;8.70;;;2.53;;
64932;SDS011;51446;53.850;10.662;2022-07-05T05:12:18;3.03;;;2.30;;
64932;SDS011;51446;53.850;10.662;2022-07-05T05:14:44;6.67;;;2.70;;
64932;SDS011;51446;53.850;10.662;2022-07-05T05:17:09;6.10;;;2.70;;
64932;SDS011;51446;53.850;10.662;2022-07-05T05:19:34;4.87;;;2.60;;
64932;SDS011;51446;53.850;10.662;2022-07-05T05:21:59;5.80;;;2.50;;
64932;SDS011;51446;53.850;10.662;2022-07-05T05:24:25;4.50;;;2.37;;
64932;SDS011;51446;53.850;10.662;2022-07-05T05:26:50;4.00;;;2.40;;
64932;SDS011;51446;53.850;10.662;2022-07-05T05:29:16;6.13;;;2.10;;
64932;SDS011;51446;53.850;10.662;2022-07-05T05:31:42;2.78;;;2.05;;
64932;SDS011;51446;53.850;10.662;2022-07-05T05:34:07;4.93;;;2.03;;
64932;SDS011;51446;53.850;10.662;2022-07-05T05:36:32;6.73;;;2.47;;
64932;SDS011;51446;53.850;10.662;2022-07-05T05:38:57;3.93;;;1.93;;
64932;SDS011;51446;53.850;10.662;2022-07-05T05:41:22;5.00;;;2.47;;
64932;SDS011;51446;53.850;10.662;2022-07-05T05:43:48;3.07;;;2.00;;
64932;SDS011;51446;53.850;10.662;2022-07-05T05:46:13;4.10;;;2.20;;
64932;SDS011;51446;53.850;10.662;2022-07-05T05:48:38;5.97;;;2.00;;
64932;SDS011;51446;53.850;10.662;2022-07-05T05:51:03;7.30;;;2.10;;
64932;SDS011;51446;53.850;10.662;2022-07-05T05:53:30;4.50;;;1.92;;
64932;SDS011;51446;53.850;10.662;2022-07-05T05:55:55;7.37;;;2.30;;
64932;SDS011;51446;53.850;10.662;2022-07-05T05:58:21;2.73;;;2.00;;
64932;SDS011;51446;53.850;10.662;2022-07-05T06:00:48;5.50;;;2.00;;
64932;SDS011;51446;53.850;10.662;2022-07-05T06:03:17;2.95;;;1.67;;
64932;SDS011;51446;53.850;10.662;2022-07-05T06:05:52;6.77;;;1.80;;
64932;SDS011;51446;53.850;10.662;2022-07-05T06:08:17;4.45;;;1.95;;
64932;SDS011;51446;53.850;10.662;2022-07-05T06:10:44;4.17;;;1.77;;
64932;SDS011;51446;53.850;10.662;2022-07-05T06:13:10;6.55;;;2.22;;
64932;SDS011;51446;53.850;10.662;2022-07-05T06:15:37;6.25;;;1.90;;
64932;SDS011;51446;53.850;10.662;2022-07-05T06:18:03;10.25;;;1.95;;
64932;SDS011;51446;53.850;10.662;2022-07-05T06:20:30;7.17;;;1.60;;
64932;SDS011;51446;53.850;10.662;2022-07-05T06:22:57;3.67;;;1.70;;
64932;SDS011;51446;53.850;10.662;2022-07-05T06:25:24;5.53;;;1.67;;
64932;SDS011;51446;53.850;10.662;2022-07-05T06:27:55;3.67;;;1.57;;
64932;SDS011;51446;53.850;10.662;2022-07-05T06:30:23;7.43;;;1.60;;
64932;SDS011;51446;53.850;10.662;2022-07-05T06:32:50;4.28;;;1.90;;
64932;SDS011;51446;53.850;10.662;2022-07-05T06:35:15;2.40;;;1.50;;
64932;SDS011;51446;53.850;10.662;2022-07-05T06:37:42;4.53;;;1.50;;
64932;SDS011;51446;53.850;10.662;2022-07-05T06:40:11;3.75;;;1.60;;
64932;SDS011;51446;53.850;10.662;2022-07-05T06:42:38;4.97;;;1.42;;
64932;SDS011;51446;53.850;10.662;2022-07-05T06:45:07;6.57;;;1.40;;
64932;SDS011;51446;53.850;10.662;2022-07-05T06:47:33;4.05;;;1.42;;
64932;SDS011;51446;53.850;10.662;2022-07-05T06:49:59;4.13;;;1.42;;
64932;SDS011;51446;53.850;10.662;2022-07-05T06:52:24;5.30;;;1.50;;
64932;SDS011;51446;53.850;10.662;2022-07-05T06:54:49;3.57;;;1.47;;
64932;SDS011;51446;53.850;10.662;2022-07-05T06:57:18;2.40;;;1.50;;
64932;SDS011;51446;53.850;10.662;2022-07-05T06:59:45;4.70;;;1.58;;
64932;SDS011;51446;53.850;10.662;2022-07-05T07:02:10;1.83;;;1.20;;
64932;SDS011;51446;53.850;10.662;2022-07-05T07:04:35;2.73;;;1.50;;
64932;SDS011;51446;53.850;10.662;2022-07-05T07:07:00;2.47;;;1.30;;
64932;SDS011;51446;53.850;10.662;2022-07-05T07:09:26;3.67;;;1.30;;
64932;SDS011;51446;53.850;10.662;2022-07-05T07:11:51;4.23;;;1.40;;
64932;SDS011;51446;53.850;10.662;2022-07-05T07:14:16;5.53;;;1.30;;
64932;SDS011;51446;53.850;10.662;2022-07-05T07:16:42;2.55;;;1.50;;
64932;SDS011;51446;53.850;10.662;2022-07-05T07:19:07;4.43;;;1.20;;
64932;SDS011;51446;53.850;10.662;2022-07-05T07:21:33;5.90;;;1.50;;
64932;SDS011;51446;53.850;10.662;2022-07-05T07:23:58;3.17;;;1.20;;
64932;SDS011;51446;53.850;10.662;2022-07-05T07:26:23;3.43;;;1.13;;
64932;SDS011;51446;53.850;10.662;2022-07-05T07:28:48;1.57;;;1.20;;
64932;SDS011;51446;53.850;10.662;2022-07-05T07:31:14;3.67;;;1.40;;
64932;SDS011;51446;53.850;10.662;2022-07-05T07:33:39;3.00;;;1.07;;
64932;SDS011;51446;53.850;10.662;2022-07-05T07:36:04;1.83;;;1.20;;
64932;SDS011;51446;53.850;10.662;2022-07-05T07:38:30;2.60;;;1.07;;
64932;SDS011;51446;53.850;10.662;2022-07-05T07:40:55;6.23;;;1.23;;
64932;SDS011;51446;53.850;10.662;2022-07-05T07:43:21;3.67;;;1.20;;
64932;SDS011;51446;53.850;10.662;2022-07-05T07:45:46;2.58;;;1.23;;
64932;SDS011;51446;53.850;10.662;2022-07-05T07:48:13;1.70;;;1.13;;
64932;SDS011;51446;53.850;10.662;2022-07-05T07:50:38;3.87;;;1.27;;
64932;SDS011;51446;53.850;10.662;2022-07-05T07:53:04;3.85;;;1.23;;
64932;SDS011;51446;53.850;10.662;2022-07-05T07:55:29;4.70;;;1.53;;
64932;SDS011;51446;53.850;10.662;2022-07-05T07:57:55;3.53;;;1.50;;
64932;SDS011;51446;53.850;10.662;2022-07-05T08:00:20;4.37;;;1.30;;
64932;SDS011;51446;53.850;10.662;2022-07-05T08:02:45;1.83;;;1.13;;
64932;SDS011;51446;53.850;10.662;2022-07-05T08:05:10;7.00;;;1.20;;
64932;SDS011;51446;53.850;10.662;2022-07-05T08:07:36;6.10;;;1.10;;
64932;SDS011;51446;53.850;10.662;2022-07-05T08:10:02;5.67;;;1.60;;
64932;SDS011;51446;53.850;10.662;2022-07-05T08:12:29;3.28;;;1.13;;
64932;SDS011;51446;53.850;10.662;2022-07-05T08:14:54;3.30;;;1.30;;
64932;SDS011;51446;53.850;10.662;2022-07-05T08:17:19;5.83;;;1.30;;
64932;SDS011;51446;53.850;10.662;2022-07-05T08:19:45;4.82;;;1.10;;
64932;SDS011;51446;53.850;10.662;2022-07-05T08:22:29;3.88;;;1.15;;
64932;SDS011;51446;53.850;10.662;2022-07-05T08:24:55;1.90;;;1.00;;
64932;SDS011;51446;53.850;10.662;2022-07-05T08:27:20;2.70;;;0.93;;
64932;SDS011;51446;53.850;10.662;2022-07-05T08:29:46;5.70;;;0.90;;
64932;SDS011;51446;53.850;10.662;2022-07-05T08:32:11;1.70;;;0.87;;
64932;SDS011;51446;53.850;10.662;2022-07-05T08:34:36;3.07;;;0.87;;
64932;SDS011;51446;53.850;10.662;2022-07-05T08:37:02;2.13;;;0.90;;
64932;SDS011;51446;53.850;10.662;2022-07-05T08:39:28;5.63;;;1.20;;
64932;SDS011;51446;53.850;10.662;2022-07-05T08:41:54;2.75;;;0.88;;
64932;SDS011;51446;53.850;10.662;2022-07-05T08:44:22;3.00;;;0.60;;
64932;SDS011;51446;53.850;10.662;2022-07-05T08:46:48;6.03;;;0.80;;
64932;SDS011;51446;53.850;10.662;2022-07-05T08:49:16;2.00;;;0.75;;
64932;SDS011;51446;53.850;10.662;2022-07-05T08:51:46;3.83;;;0.90;;
64932;SDS011;51446;53.850;10.662;2022-07-05T08:54:12;2.45;;;0.88;;
64932;SDS011;51446;53.850;10.662;2022-07-05T08:56:40;3.03;;;0.60;;
64932;SDS011;51446;53.850;10.662;2022-07-05T08:59:06;4.00;;;1.00;;
64932;SDS011;51446;53.850;10.662;2022-07-05T09:01:31;6.07;;;0.80;;
64932;SDS011;51446;53.850;10.662;2022-07-05T09:04:00;3.85;;;0.80;;
64932;SDS011;51446;53.850;10.662;2022-07-05T09:06:28;2.93;;;0.70;;
64932;SDS011;51446;53.850;10.662;2022-07-05T09:08:56;2.38;;;0.80;;
64932;SDS011;51446;53.850;10.662;2022-07-05T09:11:24;3.00;;;0.80;;
64932;SDS011;51446;53.850;10.662;2022-07-05T09:13:53;1.50;;;0.70;;
64932;SDS011;51446;53.850;10.662;2022-07-05T09:16:19;6.57;;;1.00;;
64932;SDS011;51446;53.850;10.662;2022-07-05T09:21:20;2.72;;;1.05;;
64932;SDS011;51446;53.850;10.662;2022-07-05T09:23:53;2.58;;;1.00;;
64932;SDS011;51446;53.850;10.662;2022-07-05T09:27:05;4.70;;;1.10;;
64932;SDS011;51446;53.850;10.662;2022-07-05T09:29:18;5.57;;;1.00;;
64932;SDS011;51446;53.850;10.662;2022-07-05T09:31:46;4.40;;;1.00;;
64932;SDS011;51446;53.850;10.662;2022-07-05T09:34:19;3.33;;;1.00;;
64932;SDS011;51446;53.850;10.662;2022-07-05T09:36:50;6.30;;;0.77;;
64932;SDS011;51446;53.850;10.662;2022-07-05T09:44:44;1.85;;;0.80;;
64932;SDS011;51446;53.850;10.662;2022-07-05T09:47:11;2.42;;;0.82;;
64932;SDS011;51446;53.850;10.662;2022-07-05T09:49:41;3.45;;;0.70;;
64932;SDS011;51446;53.850;10.662;2022-07-05T09:52:08;0.80;;;0.70;;
64932;SDS011;51446;53.850;10.662;2022-07-05T09:54:33;3.87;;;0.70;;
64932;SDS011;51446;53.850;10.662;2022-07-05T09:56:59;2.55;;;0.60;;
64932;SDS011;51446;53.850;10.662;2022-07-05T09:59:24;4.57;;;0.63;;
64932;SDS011;51446;53.850;10.662;2022-07-05T10:01:49;6.07;;;0.80;;
64932;SDS011;51446;53.850;10.662;2022-07-05T10:04:15;2.00;;;0.50;;
64932;SDS011;51446;53.850;10.662;2022-07-05T10:06:41;0.85;;;0.50;;
64932;SDS011;51446;53.850;10.662;2022-07-05T10:09:08;2.13;;;0.57;;
64932;SDS011;51446;53.850;10.662;2022-07-05T10:11:35;2.50;;;0.65;;
64932;SDS011;51446;53.850;10.662;2022-07-05T10:14:06;2.45;;;0.70;;
64932;SDS011;51446;53.850;10.662;2022-07-05T10:16:36;2.25;;;0.77;;
64932;SDS011;51446;53.850;10.662;2022-07-05T10:19:01;3.30;;;0.63;;
64932;SDS011;51446;53.850;10.662;2022-07-05T10:21:26;0.77;;;0.50;;
64932;SDS011;51446;53.850;10.662;2022-07-05T10:23:53;1.42;;;0.50;;
64932;SDS011;51446;53.850;10.662;2022-07-05T10:26:21;1.77;;;0.60;;
64932;SDS011;51446;53.850;10.662;2022-07-05T10:28:49;2.93;;;0.60;;
64932;SDS011;51446;53.850;10.662;2022-07-05T10:31:16;3.15;;;0.60;;
64932;SDS011;51446;53.850;10.662;2022-07-05T10:33:42;5.00;;;0.57;;
64932;SDS011;51446;53.850;10.662;2022-07-05T10:36:12;2.60;;;0.80;;
64932;SDS011;51446;53.850;10.662;2022-07-05T10:38:39;2.03;;;0.65;;
64932;SDS011;51446;53.850;10.662;2022-07-05T10:41:08;2.60;;;0.67;;
64932;SDS011;51446;53.850;10.662;2022-07-05T10:43:36;1.23;;;0.60;;
64932;SDS011;51446;53.850;10.662;2022-07-05T10:46:01;1.67;;;0.50;;
64932;SDS011;51446;53.850;10.662;2022-07-05T10:48:31;3.40;;;0.60;;
64932;SDS011;51446;53.850;10.662;2022-07-05T10:50:57;1.03;;;0.60;;
64932;SDS011;51446;53.850;10.662;2022-07-05T10:58:39;3.03;;;0.55;;
64932;SDS011;51446;53.850;10.662;2022-07-05T11:06:24;1.20;;;0.60;;
64932;SDS011;51446;53.850;10.662;2022-07-05T11:11:28;1.10;;;0.80;;
64932;SDS011;51446;53.850;10.662;2022-07-05T11:13:54;1.70;;;0.85;;
64932;SDS011;51446;53.850;10.662;2022-07-05T11:18:47;1.97;;;0.70;;
64932;SDS011;51446;53.850;10.662;2022-07-05T11:21:18;2.97;;;1.00;;
64932;SDS011;51446;53.850;10.662;2022-07-05T11:23:45;1.30;;;0.60;;
64932;SDS011;51446;53.850;10.662;2022-07-05T11:26:11;3.38;;;0.70;;
64932;SDS011;51446;53.850;10.662;2022-07-05T11:28:44;3.03;;;0.77;;
64932;SDS011;51446;53.850;10.662;2022-07-05T11:31:12;2.27;;;0.70;;
64932;SDS011;51446;53.850;10.662;2022-07-05T11:33:39;3.63;;;0.88;;
64932;SDS011;51446;53.850;10.662;2022-07-05T11:36:19;2.20;;;0.73;;
64932;SDS011;51446;53.850;10.662;2022-07-05T11:39:06;2.50;;;0.88;;
64932;SDS011;51446;53.850;10.662;2022-07-05T11:41:44;4.68;;;0.77;;
64932;SDS011;51446;53.850;10.662;2022-07-05T11:44:12;2.57;;;0.60;;
64932;SDS011;51446;53.850;10.662;2022-07-05T11:46:38;3.75;;;0.68;;
64932;SDS011;51446;53.850;10.662;2022-07-05T11:49:03;1.90;;;0.50;;
64932;SDS011;51446;53.850;10.662;2022-07-05T11:51:29;0.95;;;0.60;;
64932;SDS011;51446;53.850;10.662;2022-07-05T11:53:54;1.80;;;0.70;;
64932;SDS011;51446;53.850;10.662;2022-07-05T11:56:19;1.13;;;0.40;;
64932;SDS011;51446;53.850;10.662;2022-07-05T11:58:45;1.52;;;0.70;;
64932;SDS011;51446;53.850;10.662;2022-07-05T12:01:10;1.93;;;0.70;;
64932;SDS011;51446;53.850;10.662;2022-07-05T12:03:35;3.10;;;0.60;;
64932;SDS011;51446;53.850;10.662;2022-07-05T12:06:13;2.03;;;0.80;;
64932;SDS011;51446;53.850;10.662;2022-07-05T12:08:40;2.60;;;0.60;;
64932;SDS011;51446;53.850;10.662;2022-07-05T12:11:06;1.43;;;0.70;;
64932;SDS011;51446;53.850;10.662;2022-07-05T12:13:50;0.70;;;0.40;;
64932;SDS011;51446;53.850;10.662;2022-07-05T12:16:15;2.40;;;0.60;;
64932;SDS011;51446;53.850;10.662;2022-07-05T12:18:47;2.30;;;0.50;;
64932;SDS011;51446;53.850;10.662;2022-07-05T12:21:17;3.42;;;0.55;;
64932;SDS011;51446;53.850;10.662;2022-07-05T12:23:45;4.03;;;0.77;;
64932;SDS011;51446;53.850;10.662;2022-07-05T12:26:15;3.17;;;0.50;;
64932;SDS011;51446;53.850;10.662;2022-07-05T12:28:41;2.03;;;0.60;;
64932;SDS011;51446;53.850;10.662;2022-07-05T12:31:17;5.53;;;0.67;;
64932;SDS011;51446;53.850;10.662;2022-07-05T12:33:47;2.92;;;1.05;;
64932;SDS011;51446;53.850;10.662;2022-07-05T12:36:17;2.50;;;1.08;;
64932;SDS011;51446;53.850;10.662;2022-07-05T12:38:44;3.47;;;0.85;;
64932;SDS011;51446;53.850;10.662;2022-07-05T12:41:10;2.45;;;0.60;;
64932;SDS011;51446;53.850;10.662;2022-07-05T12:43:54;1.20;;;0.63;;
64932;SDS011;51446;53.850;10.662;2022-07-05T12:46:21;2.30;;;0.68;;
64932;SDS011;51446;53.850;10.662;2022-07-05T12:49:01;2.90;;;0.77;;
64932;SDS011;51446;53.850;10.662;2022-07-05T12:51:33;2.57;;;0.70;;
64932;SDS011;51446;53.850;10.662;2022-07-05T12:54:00;3.65;;;0.90;;
64932;SDS011;51446;53.850;10.662;2022-07-05T12:56:52;2.33;;;0.80;;
64932;SDS011;51446;53.850;10.662;2022-07-05T12:59:37;1.63;;;0.73;;
64932;SDS011;51446;53.850;10.662;2022-07-05T13:02:03;3.20;;;0.80;;
64932;SDS011;51446;53.850;10.662;2022-07-05T13:04:29;3.80;;;1.00;;
64932;SDS011;51446;53.850;10.662;2022-07-05T13:06:56;2.75;;;0.85;;
64932;SDS011;51446;53.850;10.662;2022-07-05T13:12:07;2.60;;;0.90;;
64932;SDS011;51446;53.850;10.662;2022-07-05T13:14:35;3.93;;;0.80;;
64932;SDS011;51446;53.850;10.662;2022-07-05T13:17:02;1.95;;;0.90;;
64932;SDS011;51446;53.850;10.662;2022-07-05T13:19:27;2.33;;;0.90;;
64932;SDS011;51446;53.850;10.662;2022-07-05T13:21:52;4.30;;;1.00;;
64932;SDS011;51446;53.850;10.662;2022-07-05T13:24:18;6.57;;;0.90;;
64932;SDS011;51446;53.850;10.662;2022-07-05T13:26:43;2.83;;;0.80;;
64932;SDS011;51446;53.850;10.662;2022-07-05T13:29:08;3.07;;;0.70;;
64932;SDS011;51446;53.850;10.662;2022-07-05T13:31:34;1.80;;;0.70;;
64932;SDS011;51446;53.850;10.662;2022-07-05T13:33:59;4.77;;;1.00;;
64932;SDS011;51446;53.850;10.662;2022-07-05T13:36:25;1.70;;;0.90;;
64932;SDS011;51446;53.850;10.662;2022-07-05T13:38:51;3.13;;;0.75;;
64932;SDS011;51446;53.850;10.662;2022-07-05T13:41:17;1.97;;;0.83;;
64932;SDS011;51446;53.850;10.662;2022-07-05T13:43:42;3.20;;;1.17;;
64932;SDS011;51446;53.850;10.662;2022-07-05T13:46:09;2.22;;;0.90;;
64932;SDS011;51446;53.850;10.662;2022-07-05T13:48:35;4.75;;;1.02;;
64932;SDS011;51446;53.850;10.662;2022-07-05T13:51:00;2.13;;;1.10;;
64932;SDS011;51446;53.850;10.662;2022-07-05T13:53:25;3.87;;;1.20;;
64932;SDS011;51446;53.850;10.662;2022-07-05T13:55:50;2.00;;;0.97;;
64932;SDS011;51446;53.850;10.662;2022-07-05T13:58:16;1.70;;;0.90;;
64932;SDS011;51446;53.850;10.662;2022-07-05T14:00:41;1.90;;;0.90;;
64932;SDS011;51446;53.850;10.662;2022-07-05T14:03:06;1.97;;;1.00;;
64932;SDS011;51446;53.850;10.662;2022-07-05T14:05:31;4.10;;;1.10;;
64932;SDS011;51446;53.850;10.662;2022-07-05T14:07:57;1.73;;;0.90;;
64932;SDS011;51446;53.850;10.662;2022-07-05T14:10:23;1.73;;;0.93;;
64932;SDS011;51446;53.850;10.662;2022-07-05T14:12:48;2.33;;;0.90;;
64932;SDS011;51446;53.850;10.662;2022-07-05T14:15:13;2.07;;;0.80;;
64932;SDS011;51446;53.850;10.662;2022-07-05T14:17:38;3.17;;;0.90;;
64932;SDS011;51446;53.850;10.662;2022-07-05T14:20:04;3.37;;;0.90;;
64932;SDS011;51446;53.850;10.662;2022-07-05T14:22:30;1.13;;;0.80;;
64932;SDS011;51446;53.850;10.662;2022-07-05T14:24:55;5.03;;;1.00;;
64932;SDS011;51446;53.850;10.662;2022-07-05T14:27:21;2.53;;;0.90;;
64932;SDS011;51446;53.850;10.662;2022-07-05T14:29:46;2.60;;;0.87;;
64932;SDS011;51446;53.850;10.662;2022-07-05T14:32:11;3.70;;;0.90;;
64932;SDS011;51446;53.850;10.662;2022-07-05T14:34:36;2.20;;;0.80;;
64932;SDS011;51446;53.850;10.662;2022-07-05T14:37:02;5.67;;;1.53;;
64932;SDS011;51446;53.850;10.662;2022-07-05T14:39:27;2.30;;;0.77;;
64932;SDS011;51446;53.850;10.662;2022-07-05T14:41:52;2.30;;;0.70;;
64932;SDS011;51446;53.850;10.662;2022-07-05T14:44:18;1.43;;;0.70;;
64932;SDS011;51446;53.850;10.662;2022-07-05T14:46:43;2.73;;;0.80;;
64932;SDS011;51446;53.850;10.662;2022-07-05T14:49:08;2.83;;;0.73;;
64932;SDS011;51446;53.850;10.662;2022-07-05T14:51:34;4.95;;;0.75;;
64932;SDS011;51446;53.850;10.662;2022-07-05T14:53:59;4.50;;;0.60;;
64932;SDS011;51446;53.850;10.662;2022-07-05T14:56:24;3.47;;;0.80;;